sensor_id;sensor_type;location;lat;lon;timestamp;temperature;humidity
9329;DHT22;4703;48.748;19.142;2022-07-19T00:02:15;19.00;66.30
9329;DHT22;4703;48.748;19.142;2022-07-19T00:04:43;19.90;67.50
9329;DHT22;4703;48.748;19.142;2022-07-19T00:07:10;19.00;66.90
9329;DHT22;4703;48.748;19.142;2022-07-19T00:09:37;18.90;67.20
9329;DHT22;4703;48.748;19.142;2022-07-19T00:12:05;18.90;67.40
9329;DHT22;4703;48.748;19.142;2022-07-19T00:14:32;18.90;67.70
9329;DHT22;4703;48.748;19.142;2022-07-19T00:16:59;18.80;67.70
9329;DHT22;4703;48.748;19.142;2022-07-19T00:19:26;18.80;67.70
9329;DHT22;4703;48.748;19.142;2022-07-19T00:21:53;18.80;68.60
9329;DHT22;4703;48.748;19.142;2022-07-19T00:24:20;18.70;69.30
9329;DHT22;4703;48.748;19.142;2022-07-19T00:26:47;18.50;70.10
9329;DHT22;4703;48.748;19.142;2022-07-19T00:29:14;18.40;70.80
9329;DHT22;4703;48.748;19.142;2022-07-19T00:31:41;18.30;72.10
9329;DHT22;4703;48.748;19.142;2022-07-19T00:34:08;18.30;72.00
9329;DHT22;4703;48.748;19.142;2022-07-19T00:36:35;19.00;72.90
9329;DHT22;4703;48.748;19.142;2022-07-19T00:39:04;18.20;73.20
9329;DHT22;4703;48.748;19.142;2022-07-19T00:41:31;18.20;73.30
9329;DHT22;4703;48.748;19.142;2022-07-19T00:43:58;18.10;73.20
9329;DHT22;4703;48.748;19.142;2022-07-19T00:46:25;18.20;73.40
9329;DHT22;4703;48.748;19.142;2022-07-19T00:48:52;18.20;73.50
9329;DHT22;4703;48.748;19.142;2022-07-19T00:51:19;18.10;73.50
9329;DHT22;4703;48.748;19.142;2022-07-19T00:53:46;18.10;74.10
9329;DHT22;4703;48.748;19.142;2022-07-19T00:56:14;18.00;75.00
9329;DHT22;4703;48.748;19.142;2022-07-19T00:58:42;18.00;75.00
9329;DHT22;4703;48.748;19.142;2022-07-19T01:01:10;18.00;75.80
9329;DHT22;4703;48.748;19.142;2022-07-19T01:03:39;17.90;76.40
9329;DHT22;4703;48.748;19.142;2022-07-19T01:06:09;17.80;76.70
9329;DHT22;4703;48.748;19.142;2022-07-19T01:08:37;17.70;76.30
9329;DHT22;4703;48.748;19.142;2022-07-19T01:11:05;17.70;77.40
9329;DHT22;4703;48.748;19.142;2022-07-19T01:13:33;17.70;77.60
9329;DHT22;4703;48.748;19.142;2022-07-19T01:16:01;17.70;77.50
9329;DHT22;4703;48.748;19.142;2022-07-19T01:18:28;17.70;77.80
9329;DHT22;4703;48.748;19.142;2022-07-19T01:20:56;17.60;78.40
9329;DHT22;4703;48.748;19.142;2022-07-19T01:23:24;17.60;78.30
9329;DHT22;4703;48.748;19.142;2022-07-19T01:25:51;17.70;79.00
9329;DHT22;4703;48.748;19.142;2022-07-19T01:28:18;17.60;79.40
9329;DHT22;4703;48.748;19.142;2022-07-19T01:30:45;17.50;79.60
9329;DHT22;4703;48.748;19.142;2022-07-19T01:33:13;17.40;80.30
9329;DHT22;4703;48.748;19.142;2022-07-19T01:35:40;17.80;81.60
9329;DHT22;4703;48.748;19.142;2022-07-19T01:38:07;17.30;83.10
9329;DHT22;4703;48.748;19.142;2022-07-19T01:40:34;17.20;83.80
9329;DHT22;4703;48.748;19.142;2022-07-19T01:43:01;17.10;84.40
9329;DHT22;4703;48.748;19.142;2022-07-19T01:45:28;17.00;84.70
9329;DHT22;4703;48.748;19.142;2022-07-19T01:47:55;17.00;85.40
9329;DHT22;4703;48.748;19.142;2022-07-19T01:50:22;16.90;85.90
9329;DHT22;4703;48.748;19.142;2022-07-19T01:52:49;16.80;87.10
9329;DHT22;4703;48.748;19.142;2022-07-19T01:55:18;16.80;87.40
9329;DHT22;4703;48.748;19.142;2022-07-19T01:57:47;16.90;87.80
9329;DHT22;4703;48.748;19.142;2022-07-19T02:00:14;16.70;88.40
9329;DHT22;4703;48.748;19.142;2022-07-19T02:02:41;16.70;89.10
9329;DHT22;4703;48.748;19.142;2022-07-19T02:05:09;18.20;90.50
9329;DHT22;4703;48.748;19.142;2022-07-19T02:07:37;16.70;90.00
9329;DHT22;4703;48.748;19.142;2022-07-19T02:10:07;16.70;90.00
9329;DHT22;4703;48.748;19.142;2022-07-19T02:12:35;16.70;90.50
9329;DHT22;4703;48.748;19.142;2022-07-19T02:15:02;16.60;90.90
9329;DHT22;4703;48.748;19.142;2022-07-19T02:17:30;16.60;90.90
9329;DHT22;4703;48.748;19.142;2022-07-19T02:19:57;16.50;91.40
9329;DHT22;4703;48.748;19.142;2022-07-19T02:22:24;16.50;91.50
9329;DHT22;4703;48.748;19.142;2022-07-19T02:24:51;16.60;92.00
9329;DHT22;4703;48.748;19.142;2022-07-19T02:27:18;16.40;92.00
9329;DHT22;4703;48.748;19.142;2022-07-19T02:29:46;16.40;92.30
9329;DHT22;4703;48.748;19.142;2022-07-19T02:32:13;16.40;92.60
9329;DHT22;4703;48.748;19.142;2022-07-19T02:34:40;16.40;92.60
9329;DHT22;4703;48.748;19.142;2022-07-19T02:37:08;16.30;92.90
9329;DHT22;4703;48.748;19.142;2022-07-19T02:39:35;16.30;92.90
9329;DHT22;4703;48.748;19.142;2022-07-19T02:42:02;16.30;93.20
9329;DHT22;4703;48.748;19.142;2022-07-19T02:44:29;16.30;93.50
9329;DHT22;4703;48.748;19.142;2022-07-19T02:46:56;16.30;93.40
9329;DHT22;4703;48.748;19.142;2022-07-19T02:49:23;17.30;94.00
9329;DHT22;4703;48.748;19.142;2022-07-19T02:51:50;16.20;93.40
9329;DHT22;4703;48.748;19.142;2022-07-19T02:54:17;16.20;93.80
9329;DHT22;4703;48.748;19.142;2022-07-19T02:56:44;16.20;93.90
9329;DHT22;4703;48.748;19.142;2022-07-19T02:59:11;16.20;94.00
9329;DHT22;4703;48.748;19.142;2022-07-19T03:01:38;16.20;94.10
9329;DHT22;4703;48.748;19.142;2022-07-19T03:04:06;16.20;94.40
9329;DHT22;4703;48.748;19.142;2022-07-19T03:06:33;16.20;94.30
9329;DHT22;4703;48.748;19.142;2022-07-19T03:09:00;17.90;95.40
9329;DHT22;4703;48.748;19.142;2022-07-19T03:11:27;16.30;94.80
9329;DHT22;4703;48.748;19.142;2022-07-19T03:13:54;18.10;95.80
9329;DHT22;4703;48.748;19.142;2022-07-19T03:16:21;16.20;94.90
9329;DHT22;4703;48.748;19.142;2022-07-19T03:18:48;16.20;95.10
9329;DHT22;4703;48.748;19.142;2022-07-19T03:21:15;17.30;95.70
9329;DHT22;4703;48.748;19.142;2022-07-19T03:23:42;16.20;95.10
9329;DHT22;4703;48.748;19.142;2022-07-19T03:26:10;18.50;96.50
9329;DHT22;4703;48.748;19.142;2022-07-19T03:28:37;18.00;95.80
9329;DHT22;4703;48.748;19.142;2022-07-19T03:31:04;17.30;95.40
9329;DHT22;4703;48.748;19.142;2022-07-19T03:33:31;16.40;94.90
9329;DHT22;4703;48.748;19.142;2022-07-19T03:35:58;16.50;94.80
9329;DHT22;4703;48.748;19.142;2022-07-19T03:38:25;16.50;94.70
9329;DHT22;4703;48.748;19.142;2022-07-19T03:40:52;17.60;95.30
9329;DHT22;4703;48.748;19.142;2022-07-19T03:43:19;16.60;94.70
9329;DHT22;4703;48.748;19.142;2022-07-19T03:45:47;16.60;94.60
9329;DHT22;4703;48.748;19.142;2022-07-19T03:48:14;18.10;95.30
9329;DHT22;4703;48.748;19.142;2022-07-19T03:50:41;16.60;94.20
9329;DHT22;4703;48.748;19.142;2022-07-19T03:53:08;16.60;94.70
9329;DHT22;4703;48.748;19.142;2022-07-19T03:55:35;16.60;94.80
9329;DHT22;4703;48.748;19.142;2022-07-19T03:58:02;16.50;94.80
9329;DHT22;4703;48.748;19.142;2022-07-19T04:00:30;16.60;94.90
9329;DHT22;4703;48.748;19.142;2022-07-19T04:02:57;17.10;94.90
9329;DHT22;4703;48.748;19.142;2022-07-19T04:05:24;17.30;95.40
9329;DHT22;4703;48.748;19.142;2022-07-19T04:07:51;16.50;94.70
9329;DHT22;4703;48.748;19.142;2022-07-19T04:10:18;16.50;94.70
9329;DHT22;4703;48.748;19.142;2022-07-19T04:12:45;17.90;95.20
9329;DHT22;4703;48.748;19.142;2022-07-19T04:15:12;16.60;94.90
9329;DHT22;4703;48.748;19.142;2022-07-19T04:17:39;16.60;94.60
9329;DHT22;4703;48.748;19.142;2022-07-19T04:20:07;16.60;94.50
9329;DHT22;4703;48.748;19.142;2022-07-19T04:22:34;16.60;94.40
9329;DHT22;4703;48.748;19.142;2022-07-19T04:25:01;16.60;94.40
9329;DHT22;4703;48.748;19.142;2022-07-19T04:27:29;16.60;94.60
9329;DHT22;4703;48.748;19.142;2022-07-19T04:29:57;16.60;95.10
9329;DHT22;4703;48.748;19.142;2022-07-19T04:32:24;17.40;95.20
9329;DHT22;4703;48.748;19.142;2022-07-19T04:34:52;16.60;94.80
9329;DHT22;4703;48.748;19.142;2022-07-19T04:37:19;16.60;95.00
9329;DHT22;4703;48.748;19.142;2022-07-19T04:39:46;16.60;95.20
9329;DHT22;4703;48.748;19.142;2022-07-19T04:42:13;17.00;95.40
9329;DHT22;4703;48.748;19.142;2022-07-19T04:44:40;18.30;96.00
9329;DHT22;4703;48.748;19.142;2022-07-19T04:47:07;17.50;95.80
9329;DHT22;4703;48.748;19.142;2022-07-19T04:49:34;16.70;95.30
9329;DHT22;4703;48.748;19.142;2022-07-19T04:52:01;16.80;95.40
9329;DHT22;4703;48.748;19.142;2022-07-19T04:54:28;17.20;95.20
9329;DHT22;4703;48.748;19.142;2022-07-19T04:56:56;16.00;94.40
9329;DHT22;4703;48.748;19.142;2022-07-19T04:59:23;17.00;94.90
9329;DHT22;4703;48.748;19.142;2022-07-19T05:01:50;17.00;95.10
9329;DHT22;4703;48.748;19.142;2022-07-19T05:04:19;17.00;94.60
9329;DHT22;4703;48.748;19.142;2022-07-19T05:06:46;17.10;94.80
9329;DHT22;4703;48.748;19.142;2022-07-19T05:09:13;17.90;94.60
9329;DHT22;4703;48.748;19.142;2022-07-19T05:11:44;17.10;94.50
9329;DHT22;4703;48.748;19.142;2022-07-19T05:14:11;17.20;94.60
9329;DHT22;4703;48.748;19.142;2022-07-19T05:16:38;17.20;94.00
9329;DHT22;4703;48.748;19.142;2022-07-19T05:19:06;17.30;93.50
9329;DHT22;4703;48.748;19.142;2022-07-19T05:21:33;17.30;93.20
9329;DHT22;4703;48.748;19.142;2022-07-19T05:24:01;18.70;94.10
9329;DHT22;4703;48.748;19.142;2022-07-19T05:26:28;18.00;94.40
9329;DHT22;4703;48.748;19.142;2022-07-19T05:28:55;17.50;93.80
9329;DHT22;4703;48.748;19.142;2022-07-19T05:31:23;19.20;94.60
9329;DHT22;4703;48.748;19.142;2022-07-19T05:33:50;18.50;94.30
9329;DHT22;4703;48.748;19.142;2022-07-19T05:36:17;17.60;93.90
9329;DHT22;4703;48.748;19.142;2022-07-19T05:38:44;17.70;94.00
9329;DHT22;4703;48.748;19.142;2022-07-19T05:41:11;17.70;93.50
9329;DHT22;4703;48.748;19.142;2022-07-19T05:43:39;17.70;93.50
9329;DHT22;4703;48.748;19.142;2022-07-19T05:46:06;17.80;93.50
9329;DHT22;4703;48.748;19.142;2022-07-19T05:48:33;17.80;93.50
9329;DHT22;4703;48.748;19.142;2022-07-19T05:51:00;17.90;93.40
9329;DHT22;4703;48.748;19.142;2022-07-19T05:53:27;17.90;93.30
9329;DHT22;4703;48.748;19.142;2022-07-19T05:55:55;18.00;93.00
9329;DHT22;4703;48.748;19.142;2022-07-19T05:58:22;18.00;92.60
9329;DHT22;4703;48.748;19.142;2022-07-19T06:00:57;18.10;92.50
9329;DHT22;4703;48.748;19.142;2022-07-19T06:03:44;18.20;92.80
9329;DHT22;4703;48.748;19.142;2022-07-19T06:06:12;18.20;92.50
9329;DHT22;4703;48.748;19.142;2022-07-19T06:08:40;18.30;91.90
9329;DHT22;4703;48.748;19.142;2022-07-19T06:11:07;18.50;92.20
9329;DHT22;4703;48.748;19.142;2022-07-19T06:13:35;18.80;92.20
9329;DHT22;4703;48.748;19.142;2022-07-19T06:16:03;18.50;91.70
9329;DHT22;4703;48.748;19.142;2022-07-19T06:18:31;18.60;91.40
9329;DHT22;4703;48.748;19.142;2022-07-19T06:21:02;18.60;91.10
9329;DHT22;4703;48.748;19.142;2022-07-19T06:23:39;18.60;91.00
9329;DHT22;4703;48.748;19.142;2022-07-19T06:26:09;18.70;91.20
9329;DHT22;4703;48.748;19.142;2022-07-19T06:28:36;18.80;91.20
9329;DHT22;4703;48.748;19.142;2022-07-19T06:31:14;18.80;90.90
9329;DHT22;4703;48.748;19.142;2022-07-19T06:33:45;18.90;91.10
9329;DHT22;4703;48.748;19.142;2022-07-19T06:36:13;18.90;90.40
9329;DHT22;4703;48.748;19.142;2022-07-19T06:38:40;20.30;91.00
9329;DHT22;4703;48.748;19.142;2022-07-19T06:41:09;19.10;90.70
9329;DHT22;4703;48.748;19.142;2022-07-19T06:43:38;19.10;90.50
9329;DHT22;4703;48.748;19.142;2022-07-19T06:46:06;19.20;90.20
9329;DHT22;4703;48.748;19.142;2022-07-19T06:48:34;19.30;89.50
9329;DHT22;4703;48.748;19.142;2022-07-19T06:51:01;19.30;89.20
9329;DHT22;4703;48.748;19.142;2022-07-19T06:53:28;19.40;89.60
9329;DHT22;4703;48.748;19.142;2022-07-19T06:55:55;19.50;88.30
9329;DHT22;4703;48.748;19.142;2022-07-19T06:58:22;19.50;87.70
9329;DHT22;4703;48.748;19.142;2022-07-19T07:00:49;19.60;88.10
9329;DHT22;4703;48.748;19.142;2022-07-19T07:03:18;19.70;86.70
9329;DHT22;4703;48.748;19.142;2022-07-19T07:05:45;19.70;88.80
9329;DHT22;4703;48.748;19.142;2022-07-19T07:08:13;19.80;87.10
9329;DHT22;4703;48.748;19.142;2022-07-19T07:10:40;19.80;86.40
9329;DHT22;4703;48.748;19.142;2022-07-19T07:13:07;20.00;82.90
9329;DHT22;4703;48.748;19.142;2022-07-19T07:15:34;20.00;82.90
9329;DHT22;4703;48.748;19.142;2022-07-19T07:18:01;20.10;83.10
9329;DHT22;4703;48.748;19.142;2022-07-19T07:20:28;20.20;83.40
9329;DHT22;4703;48.748;19.142;2022-07-19T07:22:55;20.30;82.00
9329;DHT22;4703;48.748;19.142;2022-07-19T07:25:23;20.30;79.70
9329;DHT22;4703;48.748;19.142;2022-07-19T07:27:50;20.60;77.70
9329;DHT22;4703;48.748;19.142;2022-07-19T07:30:20;20.50;78.10
9329;DHT22;4703;48.748;19.142;2022-07-19T07:32:47;20.60;78.70
9329;DHT22;4703;48.748;19.142;2022-07-19T07:35:14;20.70;76.90
9329;DHT22;4703;48.748;19.142;2022-07-19T07:37:42;20.70;77.10
9329;DHT22;4703;48.748;19.142;2022-07-19T07:40:09;20.80;76.00
9329;DHT22;4703;48.748;19.142;2022-07-19T07:42:37;20.80;76.50
9329;DHT22;4703;48.748;19.142;2022-07-19T07:45:04;20.90;77.50
9329;DHT22;4703;48.748;19.142;2022-07-19T07:47:33;21.00;75.40
9329;DHT22;4703;48.748;19.142;2022-07-19T07:50:02;21.10;75.60
9329;DHT22;4703;48.748;19.142;2022-07-19T07:52:30;21.10;76.20
9329;DHT22;4703;48.748;19.142;2022-07-19T07:54:57;21.30;73.20
9329;DHT22;4703;48.748;19.142;2022-07-19T07:57:44;21.40;73.10
9329;DHT22;4703;48.748;19.142;2022-07-19T08:00:12;21.40;73.70
9329;DHT22;4703;48.748;19.142;2022-07-19T08:02:42;21.50;74.30
9329;DHT22;4703;48.748;19.142;2022-07-19T08:05:11;21.60;73.50
9329;DHT22;4703;48.748;19.142;2022-07-19T08:07:38;21.60;72.90
9329;DHT22;4703;48.748;19.142;2022-07-19T08:10:07;21.70;72.10
9329;DHT22;4703;48.748;19.142;2022-07-19T08:12:35;21.80;70.20
9329;DHT22;4703;48.748;19.142;2022-07-19T08:15:05;22.00;69.50
9329;DHT22;4703;48.748;19.142;2022-07-19T08:17:33;22.10;68.70
9329;DHT22;4703;48.748;19.142;2022-07-19T08:20:00;22.30;69.20
9329;DHT22;4703;48.748;19.142;2022-07-19T08:22:28;22.30;67.00
9329;DHT22;4703;48.748;19.142;2022-07-19T08:24:55;22.50;66.60
9329;DHT22;4703;48.748;19.142;2022-07-19T08:27:23;22.60;68.00
9329;DHT22;4703;48.748;19.142;2022-07-19T08:29:50;22.60;67.20
9329;DHT22;4703;48.748;19.142;2022-07-19T08:32:17;22.70;66.20
9329;DHT22;4703;48.748;19.142;2022-07-19T08:34:44;22.90;65.70
9329;DHT22;4703;48.748;19.142;2022-07-19T08:37:11;23.00;65.80
9329;DHT22;4703;48.748;19.142;2022-07-19T08:39:38;23.10;66.40
9329;DHT22;4703;48.748;19.142;2022-07-19T08:42:06;23.10;65.30
9329;DHT22;4703;48.748;19.142;2022-07-19T08:44:35;23.20;65.50
9329;DHT22;4703;48.748;19.142;2022-07-19T08:47:06;23.30;63.70
9329;DHT22;4703;48.748;19.142;2022-07-19T08:49:34;23.40;64.60
9329;DHT22;4703;48.748;19.142;2022-07-19T08:52:01;23.50;64.30
9329;DHT22;4703;48.748;19.142;2022-07-19T08:54:29;23.60;63.80
9329;DHT22;4703;48.748;19.142;2022-07-19T08:57:01;23.60;63.70
9329;DHT22;4703;48.748;19.142;2022-07-19T08:59:46;23.70;61.90
9329;DHT22;4703;48.748;19.142;2022-07-19T09:02:14;23.90;60.80
9329;DHT22;4703;48.748;19.142;2022-07-19T09:04:41;23.80;60.10
9329;DHT22;4703;48.748;19.142;2022-07-19T09:07:08;24.10;58.90
9329;DHT22;4703;48.748;19.142;2022-07-19T09:09:35;24.30;58.10
9329;DHT22;4703;48.748;19.142;2022-07-19T09:12:06;24.40;59.70
9329;DHT22;4703;48.748;19.142;2022-07-19T09:14:35;24.50;59.00
9329;DHT22;4703;48.748;19.142;2022-07-19T09:17:04;24.50;58.30
9329;DHT22;4703;48.748;19.142;2022-07-19T09:19:42;24.60;58.70
9329;DHT22;4703;48.748;19.142;2022-07-19T09:22:16;24.60;58.80
9329;DHT22;4703;48.748;19.142;2022-07-19T09:24:49;24.80;56.70
9329;DHT22;4703;48.748;19.142;2022-07-19T09:27:18;24.80;57.70
9329;DHT22;4703;48.748;19.142;2022-07-19T09:29:48;24.90;57.90
9329;DHT22;4703;48.748;19.142;2022-07-19T09:32:21;24.90;57.90
9329;DHT22;4703;48.748;19.142;2022-07-19T09:35:01;25.00;57.60
9329;DHT22;4703;48.748;19.142;2022-07-19T09:37:31;25.00;56.50
9329;DHT22;4703;48.748;19.142;2022-07-19T09:40:02;25.10;55.90
9329;DHT22;4703;48.748;19.142;2022-07-19T09:42:43;25.30;55.40
9329;DHT22;4703;48.748;19.142;2022-07-19T09:45:15;25.40;55.30
9329;DHT22;4703;48.748;19.142;2022-07-19T09:47:48;25.50;55.00
9329;DHT22;4703;48.748;19.142;2022-07-19T09:50:19;25.50;55.80
9329;DHT22;4703;48.748;19.142;2022-07-19T09:52:49;25.50;55.30
9329;DHT22;4703;48.748;19.142;2022-07-19T09:55:19;25.60;54.80
9329;DHT22;4703;48.748;19.142;2022-07-19T09:57:49;25.60;55.00
9329;DHT22;4703;48.748;19.142;2022-07-19T10:00:19;25.70;53.80
9329;DHT22;4703;48.748;19.142;2022-07-19T10:02:50;25.70;55.80
9329;DHT22;4703;48.748;19.142;2022-07-19T10:05:19;25.90;53.40
9329;DHT22;4703;48.748;19.142;2022-07-19T10:07:47;26.00;54.30
9329;DHT22;4703;48.748;19.142;2022-07-19T10:10:18;26.10;55.20
9329;DHT22;4703;48.748;19.142;2022-07-19T10:12:47;26.20;54.40
9329;DHT22;4703;48.748;19.142;2022-07-19T10:15:16;26.30;54.20
9329;DHT22;4703;48.748;19.142;2022-07-19T10:20:38;26.70;52.20
9329;DHT22;4703;48.748;19.142;2022-07-19T10:23:06;27.00;51.20
9329;DHT22;4703;48.748;19.142;2022-07-19T10:25:45;27.20;51.40
9329;DHT22;4703;48.748;19.142;2022-07-19T10:28:30;27.30;52.10
9329;DHT22;4703;48.748;19.142;2022-07-19T10:31:30;27.40;49.90
9329;DHT22;4703;48.748;19.142;2022-07-19T10:36:45;27.70;50.00
9329;DHT22;4703;48.748;19.142;2022-07-19T10:39:24;27.80;51.10
9329;DHT22;4703;48.748;19.142;2022-07-19T10:48:09;28.30;49.70
9329;DHT22;4703;48.748;19.142;2022-07-19T10:50:14;28.60;47.60
9329;DHT22;4703;48.748;19.142;2022-07-19T10:52:45;28.80;47.40
9329;DHT22;4703;48.748;19.142;2022-07-19T11:00:29;29.30;47.40
9329;DHT22;4703;48.748;19.142;2022-07-19T11:06:00;29.70;45.50
9329;DHT22;4703;48.748;19.142;2022-07-19T11:08:38;29.90;46.90
9329;DHT22;4703;48.748;19.142;2022-07-19T11:11:09;30.10;44.90
9329;DHT22;4703;48.748;19.142;2022-07-19T11:13:37;30.30;44.50
9329;DHT22;4703;48.748;19.142;2022-07-19T11:16:06;30.40;43.30
9329;DHT22;4703;48.748;19.142;2022-07-19T11:18:33;30.60;42.60
9329;DHT22;4703;48.748;19.142;2022-07-19T11:21:02;30.70;42.60
9329;DHT22;4703;48.748;19.142;2022-07-19T11:23:36;30.70;42.00
9329;DHT22;4703;48.748;19.142;2022-07-19T11:28:40;30.80;42.00
9329;DHT22;4703;48.748;19.142;2022-07-19T11:31:20;31.20;43.10
9329;DHT22;4703;48.748;19.142;2022-07-19T11:33:52;31.60;42.40
9329;DHT22;4703;48.748;19.142;2022-07-19T11:36:21;32.00;41.00
9329;DHT22;4703;48.748;19.142;2022-07-19T11:38:52;32.20;40.90
9329;DHT22;4703;48.748;19.142;2022-07-19T11:41:30;32.50;40.00
9329;DHT22;4703;48.748;19.142;2022-07-19T11:44:05;32.70;40.00
9329;DHT22;4703;48.748;19.142;2022-07-19T11:46:38;32.80;39.70
9329;DHT22;4703;48.748;19.142;2022-07-19T11:49:11;33.00;38.30
9329;DHT22;4703;48.748;19.142;2022-07-19T11:51:40;33.10;39.60
9329;DHT22;4703;48.748;19.142;2022-07-19T11:54:07;33.30;39.50
9329;DHT22;4703;48.748;19.142;2022-07-19T11:56:35;33.50;37.90
9329;DHT22;4703;48.748;19.142;2022-07-19T11:59:05;33.70;38.90
9329;DHT22;4703;48.748;19.142;2022-07-19T12:01:36;33.90;37.20
9329;DHT22;4703;48.748;19.142;2022-07-19T12:04:08;34.10;36.90
9329;DHT22;4703;48.748;19.142;2022-07-19T12:06:40;34.20;35.70
9329;DHT22;4703;48.748;19.142;2022-07-19T12:09:13;34.30;38.00
9329;DHT22;4703;48.748;19.142;2022-07-19T12:11:49;34.40;36.00
9329;DHT22;4703;48.748;19.142;2022-07-19T12:14:30;34.70;35.70
9329;DHT22;4703;48.748;19.142;2022-07-19T12:19:44;35.20;34.00
9329;DHT22;4703;48.748;19.142;2022-07-19T12:22:36;35.40;35.50
9329;DHT22;4703;48.748;19.142;2022-07-19T12:25:06;35.60;35.50
9329;DHT22;4703;48.748;19.142;2022-07-19T12:27:35;35.80;35.30
9329;DHT22;4703;48.748;19.142;2022-07-19T12:30:04;35.80;32.70
9329;DHT22;4703;48.748;19.142;2022-07-19T12:32:39;36.30;35.50
9329;DHT22;4703;48.748;19.142;2022-07-19T12:35:14;35.90;34.00
9329;DHT22;4703;48.748;19.142;2022-07-19T12:37:46;36.10;34.30
9329;DHT22;4703;48.748;19.142;2022-07-19T12:40:25;36.30;34.00
9329;DHT22;4703;48.748;19.142;2022-07-19T12:42:55;36.30;33.80
9329;DHT22;4703;48.748;19.142;2022-07-19T12:45:29;38.10;33.50
9329;DHT22;4703;48.748;19.142;2022-07-19T12:48:08;35.80;34.60
9329;DHT22;4703;48.748;19.142;2022-07-19T12:50:40;35.40;33.90
9329;DHT22;4703;48.748;19.142;2022-07-19T12:53:11;35.00;33.30
9329;DHT22;4703;48.748;19.142;2022-07-19T12:55:40;34.80;34.50
9329;DHT22;4703;48.748;19.142;2022-07-19T12:58:11;34.50;34.40
9329;DHT22;4703;48.748;19.142;2022-07-19T13:00:40;34.20;34.90
9329;DHT22;4703;48.748;19.142;2022-07-19T13:03:08;34.10;35.00
9329;DHT22;4703;48.748;19.142;2022-07-19T13:05:36;34.00;35.40
9329;DHT22;4703;48.748;19.142;2022-07-19T13:08:03;34.00;35.10
9329;DHT22;4703;48.748;19.142;2022-07-19T13:10:31;34.10;34.40
9329;DHT22;4703;48.748;19.142;2022-07-19T13:12:58;34.20;33.30
9329;DHT22;4703;48.748;19.142;2022-07-19T13:15:25;34.30;33.90
9329;DHT22;4703;48.748;19.142;2022-07-19T13:17:52;34.20;33.60
9329;DHT22;4703;48.748;19.142;2022-07-19T13:20:27;34.20;32.40
9329;DHT22;4703;48.748;19.142;2022-07-19T13:22:54;34.10;32.20
9329;DHT22;4703;48.748;19.142;2022-07-19T13:25:21;34.00;33.50
9329;DHT22;4703;48.748;19.142;2022-07-19T13:28:08;33.80;33.60
9329;DHT22;4703;48.748;19.142;2022-07-19T13:30:35;33.60;34.90
9329;DHT22;4703;48.748;19.142;2022-07-19T13:33:03;33.30;32.50
9329;DHT22;4703;48.748;19.142;2022-07-19T13:35:33;33.10;34.10
9329;DHT22;4703;48.748;19.142;2022-07-19T13:38:00;33.00;34.60
9329;DHT22;4703;48.748;19.142;2022-07-19T13:40:27;33.00;35.00
9329;DHT22;4703;48.748;19.142;2022-07-19T13:42:54;32.90;34.40
9329;DHT22;4703;48.748;19.142;2022-07-19T13:45:21;32.70;34.70
9329;DHT22;4703;48.748;19.142;2022-07-19T13:47:49;32.60;36.70
9329;DHT22;4703;48.748;19.142;2022-07-19T13:50:25;32.40;35.40
9329;DHT22;4703;48.748;19.142;2022-07-19T13:52:53;32.10;33.80
9329;DHT22;4703;48.748;19.142;2022-07-19T13:55:20;32.00;34.50
9329;DHT22;4703;48.748;19.142;2022-07-19T13:57:47;31.90;35.70
9329;DHT22;4703;48.748;19.142;2022-07-19T14:00:14;32.00;36.40
9329;DHT22;4703;48.748;19.142;2022-07-19T14:02:45;32.00;36.90
9329;DHT22;4703;48.748;19.142;2022-07-19T14:05:13;32.00;37.30
9329;DHT22;4703;48.748;19.142;2022-07-19T14:07:40;32.00;36.10
9329;DHT22;4703;48.748;19.142;2022-07-19T14:10:08;31.90;37.80
9329;DHT22;4703;48.748;19.142;2022-07-19T14:12:36;31.80;39.10
9329;DHT22;4703;48.748;19.142;2022-07-19T14:15:03;31.70;39.30
9329;DHT22;4703;48.748;19.142;2022-07-19T14:17:31;31.80;39.60
9329;DHT22;4703;48.748;19.142;2022-07-19T14:19:58;32.00;37.70
9329;DHT22;4703;48.748;19.142;2022-07-19T14:22:25;32.30;37.70
9329;DHT22;4703;48.748;19.142;2022-07-19T14:24:52;32.80;36.60
9329;DHT22;4703;48.748;19.142;2022-07-19T14:27:19;33.30;35.10
9329;DHT22;4703;48.748;19.142;2022-07-19T14:29:46;33.40;35.60
9329;DHT22;4703;48.748;19.142;2022-07-19T14:32:13;33.40;36.20
9329;DHT22;4703;48.748;19.142;2022-07-19T14:34:40;33.30;36.70
9329;DHT22;4703;48.748;19.142;2022-07-19T14:37:07;33.10;33.90
9329;DHT22;4703;48.748;19.142;2022-07-19T14:39:35;32.80;36.80
9329;DHT22;4703;48.748;19.142;2022-07-19T14:42:03;32.60;35.40
9329;DHT22;4703;48.748;19.142;2022-07-19T14:44:31;32.40;38.50
9329;DHT22;4703;48.748;19.142;2022-07-19T14:46:59;32.40;38.00
9329;DHT22;4703;48.748;19.142;2022-07-19T14:49:27;32.50;39.90
9329;DHT22;4703;48.748;19.142;2022-07-19T14:51:54;33.00;39.10
9329;DHT22;4703;48.748;19.142;2022-07-19T14:54:21;33.50;38.90
9329;DHT22;4703;48.748;19.142;2022-07-19T14:56:51;33.70;37.20
9329;DHT22;4703;48.748;19.142;2022-07-19T14:59:22;34.00;37.00
9329;DHT22;4703;48.748;19.142;2022-07-19T15:01:51;34.30;36.30
9329;DHT22;4703;48.748;19.142;2022-07-19T15:04:19;34.80;37.70
9329;DHT22;4703;48.748;19.142;2022-07-19T15:06:49;35.50;34.00
9329;DHT22;4703;48.748;19.142;2022-07-19T15:09:16;35.80;33.00
9329;DHT22;4703;48.748;19.142;2022-07-19T15:11:43;36.00;32.10
9329;DHT22;4703;48.748;19.142;2022-07-19T15:14:11;36.10;30.80
9329;DHT22;4703;48.748;19.142;2022-07-19T15:16:38;36.50;32.60
9329;DHT22;4703;48.748;19.142;2022-07-19T15:19:05;36.90;32.50
9329;DHT22;4703;48.748;19.142;2022-07-19T15:21:32;37.50;30.90
9329;DHT22;4703;48.748;19.142;2022-07-19T15:24:02;38.00;29.70
9329;DHT22;4703;48.748;19.142;2022-07-19T15:26:30;38.40;29.60
9329;DHT22;4703;48.748;19.142;2022-07-19T15:28:57;38.80;31.50
9329;DHT22;4703;48.748;19.142;2022-07-19T15:31:24;39.10;29.00
9329;DHT22;4703;48.748;19.142;2022-07-19T15:33:52;39.30;29.60
9329;DHT22;4703;48.748;19.142;2022-07-19T15:36:19;39.60;28.20
9329;DHT22;4703;48.748;19.142;2022-07-19T15:38:46;39.80;29.10
9329;DHT22;4703;48.748;19.142;2022-07-19T15:41:14;39.80;26.30
9329;DHT22;4703;48.748;19.142;2022-07-19T15:43:54;39.80;28.10
9329;DHT22;4703;48.748;19.142;2022-07-19T15:46:26;39.80;27.50
9329;DHT22;4703;48.748;19.142;2022-07-19T15:48:57;39.90;27.80
9329;DHT22;4703;48.748;19.142;2022-07-19T15:51:26;40.00;28.10
9329;DHT22;4703;48.748;19.142;2022-07-19T15:53:54;40.10;28.60
9329;DHT22;4703;48.748;19.142;2022-07-19T15:56:22;40.30;27.20
9329;DHT22;4703;48.748;19.142;2022-07-19T15:58:49;40.30;26.70
9329;DHT22;4703;48.748;19.142;2022-07-19T16:01:18;40.10;27.10
9329;DHT22;4703;48.748;19.142;2022-07-19T16:03:46;40.10;27.60
9329;DHT22;4703;48.748;19.142;2022-07-19T16:06:13;40.20;28.10
9329;DHT22;4703;48.748;19.142;2022-07-19T16:08:40;40.40;28.20
9329;DHT22;4703;48.748;19.142;2022-07-19T16:11:07;40.50;27.60
9329;DHT22;4703;48.748;19.142;2022-07-19T16:13:34;40.40;27.50
9329;DHT22;4703;48.748;19.142;2022-07-19T16:16:01;40.30;26.30
9329;DHT22;4703;48.748;19.142;2022-07-19T16:18:28;40.00;25.60
9329;DHT22;4703;48.748;19.142;2022-07-19T16:20:55;39.80;27.20